sensor_id;sensor_type;location;lat;lon;timestamp;temperature;humidity
20526;DHT22;10421;49.142;9.232;2023-02-13T00:00:45;7.90;95.80
20526;DHT22;10421;49.142;9.232;2023-02-13T00:03:12;7.90;96.00
20526;DHT22;10421;49.142;9.232;2023-02-13T00:05:40;7.80;96.20
20526;DHT22;10421;49.142;9.232;2023-02-13T00:08:07;7.80;96.40
20526;DHT22;10421;49.142;9.232;2023-02-13T00:10:34;7.70;96.50
20526;DHT22;10421;49.142;9.232;2023-02-13T00:13:02;7.70;96.60
20526;DHT22;10421;49.142;9.232;2023-02-13T00:15:29;7.70;96.70
20526;DHT22;10421;49.142;9.232;2023-02-13T00:17:58;7.70;96.80
20526;DHT22;10421;49.142;9.232;2023-02-13T00:20:25;7.70;96.90
20526;DHT22;10421;49.142;9.232;2023-02-13T00:22:53;7.60;97.00
20526;DHT22;10421;49.142;9.232;2023-02-13T00:25:19;7.60;97.20
20526;DHT22;10421;49.142;9.232;2023-02-13T00:27:46;7.60;97.40
20526;DHT22;10421;49.142;9.232;2023-02-13T00:30:14;7.50;97.50
20526;DHT22;10421;49.142;9.232;2023-02-13T00:32:41;7.50;97.60
20526;DHT22;10421;49.142;9.232;2023-02-13T00:35:09;7.50;97.70
20526;DHT22;10421;49.142;9.232;2023-02-13T00:37:35;7.50;97.90
20526;DHT22;10421;49.142;9.232;2023-02-13T00:40:02;7.40;97.90
20526;DHT22;10421;49.142;9.232;2023-02-13T00:42:29;7.40;98.00
20526;DHT22;10421;49.142;9.232;2023-02-13T00:44:56;7.40;98.10
20526;DHT22;10421;49.142;9.232;2023-02-13T00:47:22;7.30;98.20
20526;DHT22;10421;49.142;9.232;2023-02-13T00:49:49;7.30;98.30
20526;DHT22;10421;49.142;9.232;2023-02-13T00:52:17;7.30;98.30
20526;DHT22;10421;49.142;9.232;2023-02-13T00:54:44;7.30;98.40
20526;DHT22;10421;49.142;9.232;2023-02-13T00:57:12;7.30;98.50
20526;DHT22;10421;49.142;9.232;2023-02-13T00:59:38;7.30;98.80
20526;DHT22;10421;49.142;9.232;2023-02-13T01:02:05;7.40;98.50
20526;DHT22;10421;49.142;9.232;2023-02-13T01:04:32;7.30;98.50
20526;DHT22;10421;49.142;9.232;2023-02-13T01:06:58;7.30;98.50
20526;DHT22;10421;49.142;9.232;2023-02-13T01:09:27;7.30;98.60
20526;DHT22;10421;49.142;9.232;2023-02-13T01:11:53;7.20;98.70
20526;DHT22;10421;49.142;9.232;2023-02-13T01:14:20;7.20;98.80
20526;DHT22;10421;49.142;9.232;2023-02-13T01:16:47;7.20;98.80
20526;DHT22;10421;49.142;9.232;2023-02-13T01:19:13;7.20;98.90
20526;DHT22;10421;49.142;9.232;2023-02-13T01:21:41;7.20;98.90
20526;DHT22;10421;49.142;9.232;2023-02-13T01:24:08;7.20;98.80
20526;DHT22;10421;49.142;9.232;2023-02-13T01:26:37;7.20;98.80
20526;DHT22;10421;49.142;9.232;2023-02-13T01:29:03;7.20;98.70
20526;DHT22;10421;49.142;9.232;2023-02-13T01:31:30;7.20;98.80
20526;DHT22;10421;49.142;9.232;2023-02-13T01:33:58;7.20;98.90
20526;DHT22;10421;49.142;9.232;2023-02-13T01:36:25;7.20;98.80
20526;DHT22;10421;49.142;9.232;2023-02-13T01:38:52;7.20;98.90
20526;DHT22;10421;49.142;9.232;2023-02-13T01:41:20;7.20;98.90
20526;DHT22;10421;49.142;9.232;2023-02-13T01:43:51;7.20;98.90
20526;DHT22;10421;49.142;9.232;2023-02-13T01:46:22;7.20;98.80
20526;DHT22;10421;49.142;9.232;2023-02-13T01:48:51;7.20;98.80
20526;DHT22;10421;49.142;9.232;2023-02-13T01:51:23;7.20;98.80
20526;DHT22;10421;49.142;9.232;2023-02-13T01:53:57;7.20;98.80
20526;DHT22;10421;49.142;9.232;2023-02-13T01:56:28;7.20;98.70
20526;DHT22;10421;49.142;9.232;2023-02-13T01:59:01;7.20;98.60
20526;DHT22;10421;49.142;9.232;2023-02-13T02:01:29;7.20;98.40
20526;DHT22;10421;49.142;9.232;2023-02-13T02:03:59;7.10;98.30
20526;DHT22;10421;49.142;9.232;2023-02-13T02:06:28;7.10;98.20
20526;DHT22;10421;49.142;9.232;2023-02-13T02:08:59;7.00;98.30
20526;DHT22;10421;49.142;9.232;2023-02-13T02:11:33;6.90;98.30
20526;DHT22;10421;49.142;9.232;2023-02-13T02:14:02;6.90;98.40
20526;DHT22;10421;49.142;9.232;2023-02-13T02:16:30;6.90;98.40
20526;DHT22;10421;49.142;9.232;2023-02-13T02:18:58;6.90;98.40
20526;DHT22;10421;49.142;9.232;2023-02-13T02:21:49;6.80;98.40
20526;DHT22;10421;49.142;9.232;2023-02-13T02:24:59;6.80;98.30
20526;DHT22;10421;49.142;9.232;2023-02-13T02:33:48;6.80;98.30
20526;DHT22;10421;49.142;9.232;2023-02-13T02:36:28;6.80;98.20
20526;DHT22;10421;49.142;9.232;2023-02-13T02:39:05;6.70;98.10
20526;DHT22;10421;49.142;9.232;2023-02-13T02:41:45;6.70;98.20
20526;DHT22;10421;49.142;9.232;2023-02-13T02:44:37;6.70;98.20
20526;DHT22;10421;49.142;9.232;2023-02-13T02:47:12;6.70;98.30
20526;DHT22;10421;49.142;9.232;2023-02-13T02:50:11;6.70;98.40
20526;DHT22;10421;49.142;9.232;2023-02-13T02:52:45;6.80;98.50
20526;DHT22;10421;49.142;9.232;2023-02-13T02:55:25;6.80;98.50
20526;DHT22;10421;49.142;9.232;2023-02-13T02:58:01;6.80;98.40
20526;DHT22;10421;49.142;9.232;2023-02-13T03:00:48;6.80;98.40
20526;DHT22;10421;49.142;9.232;2023-02-13T03:03:33;6.80;98.30
20526;DHT22;10421;49.142;9.232;2023-02-13T03:06:22;6.80;98.40
20526;DHT22;10421;49.142;9.232;2023-02-13T03:08:53;6.80;97.90
20526;DHT22;10421;49.142;9.232;2023-02-13T03:11:38;6.80;97.80
20526;DHT22;10421;49.142;9.232;2023-02-13T03:14:26;6.70;97.80
20526;DHT22;10421;49.142;9.232;2023-02-13T03:16:55;6.70;97.90
20526;DHT22;10421;49.142;9.232;2023-02-13T03:19:49;6.70;98.00
20526;DHT22;10421;49.142;9.232;2023-02-13T03:22:44;6.60;98.00
20526;DHT22;10421;49.142;9.232;2023-02-13T03:25:20;6.60;98.10
20526;DHT22;10421;49.142;9.232;2023-02-13T03:28:02;6.60;98.00
20526;DHT22;10421;49.142;9.232;2023-02-13T03:30:59;6.70;98.10
20526;DHT22;10421;49.142;9.232;2023-02-13T03:33:38;6.70;98.00
20526;DHT22;10421;49.142;9.232;2023-02-13T03:36:14;6.70;97.90
20526;DHT22;10421;49.142;9.232;2023-02-13T03:39:06;6.80;97.80
20526;DHT22;10421;49.142;9.232;2023-02-13T03:41:37;6.80;97.80
20526;DHT22;10421;49.142;9.232;2023-02-13T03:44:11;6.80;97.70
20526;DHT22;10421;49.142;9.232;2023-02-13T03:46:41;6.80;98.00
20526;DHT22;10421;49.142;9.232;2023-02-13T03:49:14;6.80;97.60
20526;DHT22;10421;49.142;9.232;2023-02-13T03:52:04;6.80;97.50
20526;DHT22;10421;49.142;9.232;2023-02-13T03:54:38;6.80;97.50
20526;DHT22;10421;49.142;9.232;2023-02-13T03:57:25;6.70;97.30
20526;DHT22;10421;49.142;9.232;2023-02-13T04:00:14;6.70;97.30
20526;DHT22;10421;49.142;9.232;2023-02-13T04:02:49;6.70;97.30
20526;DHT22;10421;49.142;9.232;2023-02-13T04:05:20;6.60;97.30
20526;DHT22;10421;49.142;9.232;2023-02-13T04:07:47;6.60;97.40
20526;DHT22;10421;49.142;9.232;2023-02-13T04:10:18;6.60;97.30
20526;DHT22;10421;49.142;9.232;2023-02-13T04:12:52;6.60;97.30
20526;DHT22;10421;49.142;9.232;2023-02-13T04:15:26;6.60;97.30
20526;DHT22;10421;49.142;9.232;2023-02-13T04:17:57;6.60;97.20
20526;DHT22;10421;49.142;9.232;2023-02-13T04:20:26;6.60;97.10
20526;DHT22;10421;49.142;9.232;2023-02-13T04:22:53;6.60;97.00
20526;DHT22;10421;49.142;9.232;2023-02-13T04:25:21;6.60;96.90
20526;DHT22;10421;49.142;9.232;2023-02-13T04:27:48;6.60;96.90
20526;DHT22;10421;49.142;9.232;2023-02-13T04:30:15;6.60;96.80
20526;DHT22;10421;49.142;9.232;2023-02-13T04:32:42;6.50;96.70
20526;DHT22;10421;49.142;9.232;2023-02-13T04:35:08;6.50;96.70
20526;DHT22;10421;49.142;9.232;2023-02-13T04:37:36;6.50;96.70
20526;DHT22;10421;49.142;9.232;2023-02-13T04:40:03;6.40;96.70
20526;DHT22;10421;49.142;9.232;2023-02-13T04:42:31;6.40;96.60
20526;DHT22;10421;49.142;9.232;2023-02-13T04:44:58;6.40;96.50
20526;DHT22;10421;49.142;9.232;2023-02-13T04:47:24;6.40;96.50
20526;DHT22;10421;49.142;9.232;2023-02-13T04:49:51;6.40;96.50
20526;DHT22;10421;49.142;9.232;2023-02-13T04:52:18;6.40;96.50
20526;DHT22;10421;49.142;9.232;2023-02-13T04:54:44;6.40;96.40
20526;DHT22;10421;49.142;9.232;2023-02-13T04:57:11;6.40;96.30
20526;DHT22;10421;49.142;9.232;2023-02-13T04:59:39;6.40;96.20
20526;DHT22;10421;49.142;9.232;2023-02-13T05:02:06;6.30;96.10
20526;DHT22;10421;49.142;9.232;2023-02-13T05:04:33;6.20;96.00
20526;DHT22;10421;49.142;9.232;2023-02-13T05:07:00;6.10;96.00
20526;DHT22;10421;49.142;9.232;2023-02-13T05:09:26;6.10;96.10
20526;DHT22;10421;49.142;9.232;2023-02-13T05:11:53;6.10;96.20
20526;DHT22;10421;49.142;9.232;2023-02-13T05:14:20;6.00;96.10
20526;DHT22;10421;49.142;9.232;2023-02-13T05:16:48;6.00;96.20
20526;DHT22;10421;49.142;9.232;2023-02-13T05:19:15;6.00;96.30
20526;DHT22;10421;49.142;9.232;2023-02-13T05:21:41;6.00;96.30
20526;DHT22;10421;49.142;9.232;2023-02-13T05:24:26;6.00;96.30
20526;DHT22;10421;49.142;9.232;2023-02-13T05:26:52;5.90;96.20
20526;DHT22;10421;49.142;9.232;2023-02-13T05:29:19;5.90;96.10
20526;DHT22;10421;49.142;9.232;2023-02-13T05:31:49;5.90;96.10
20526;DHT22;10421;49.142;9.232;2023-02-13T05:34:17;5.80;96.10
20526;DHT22;10421;49.142;9.232;2023-02-13T05:36:43;5.90;96.20
20526;DHT22;10421;49.142;9.232;2023-02-13T05:39:10;5.80;96.20
20526;DHT22;10421;49.142;9.232;2023-02-13T05:41:37;5.80;96.20
20526;DHT22;10421;49.142;9.232;2023-02-13T05:44:04;5.80;96.20
20526;DHT22;10421;49.142;9.232;2023-02-13T05:46:31;5.80;96.20
20526;DHT22;10421;49.142;9.232;2023-02-13T05:48:59;5.80;96.20
20526;DHT22;10421;49.142;9.232;2023-02-13T05:51:26;5.80;96.10
20526;DHT22;10421;49.142;9.232;2023-02-13T05:53:53;5.80;96.20
20526;DHT22;10421;49.142;9.232;2023-02-13T05:56:20;5.80;96.20
20526;DHT22;10421;49.142;9.232;2023-02-13T05:58:46;5.80;96.20
20526;DHT22;10421;49.142;9.232;2023-02-13T06:01:16;5.80;96.20
20526;DHT22;10421;49.142;9.232;2023-02-13T06:03:43;5.80;96.20
20526;DHT22;10421;49.142;9.232;2023-02-13T06:06:11;5.80;96.20
20526;DHT22;10421;49.142;9.232;2023-02-13T06:08:38;5.80;96.20
20526;DHT22;10421;49.142;9.232;2023-02-13T06:11:05;5.80;96.20
20526;DHT22;10421;49.142;9.232;2023-02-13T06:13:31;5.80;96.10
20526;DHT22;10421;49.142;9.232;2023-02-13T06:15:58;5.70;96.00
20526;DHT22;10421;49.142;9.232;2023-02-13T06:18:25;5.70;96.00
20526;DHT22;10421;49.142;9.232;2023-02-13T06:20:52;5.70;96.00
20526;DHT22;10421;49.142;9.232;2023-02-13T06:23:20;5.70;96.00
20526;DHT22;10421;49.142;9.232;2023-02-13T06:25:46;5.70;96.10
20526;DHT22;10421;49.142;9.232;2023-02-13T06:28:13;5.70;96.10
20526;DHT22;10421;49.142;9.232;2023-02-13T06:30:40;5.70;96.10
20526;DHT22;10421;49.142;9.232;2023-02-13T06:33:07;5.70;96.10
20526;DHT22;10421;49.142;9.232;2023-02-13T06:35:34;5.60;95.90
20526;DHT22;10421;49.142;9.232;2023-02-13T06:38:00;5.60;95.90
20526;DHT22;10421;49.142;9.232;2023-02-13T06:40:29;5.50;95.70
20526;DHT22;10421;49.142;9.232;2023-02-13T06:42:55;5.40;95.50
20526;DHT22;10421;49.142;9.232;2023-02-13T06:45:22;5.20;95.40
20526;DHT22;10421;49.142;9.232;2023-02-13T06:47:49;5.20;95.50
20526;DHT22;10421;49.142;9.232;2023-02-13T06:50:16;5.10;95.50
20526;DHT22;10421;49.142;9.232;2023-02-13T06:52:46;5.00;95.60
20526;DHT22;10421;49.142;9.232;2023-02-13T06:55:13;4.80;95.60
20526;DHT22;10421;49.142;9.232;2023-02-13T06:57:42;4.70;95.80
20526;DHT22;10421;49.142;9.232;2023-02-13T07:00:10;4.40;95.90
20526;DHT22;10421;49.142;9.232;2023-02-13T07:02:38;4.30;96.20
20526;DHT22;10421;49.142;9.232;2023-02-13T07:05:05;4.20;96.40
20526;DHT22;10421;49.142;9.232;2023-02-13T07:07:32;4.30;96.60
20526;DHT22;10421;49.142;9.232;2023-02-13T07:09:59;4.20;96.70
20526;DHT22;10421;49.142;9.232;2023-02-13T07:12:26;4.20;96.90
20526;DHT22;10421;49.142;9.232;2023-02-13T07:14:55;4.30;97.20
20526;DHT22;10421;49.142;9.232;2023-02-13T07:17:21;4.30;97.30
20526;DHT22;10421;49.142;9.232;2023-02-13T07:19:48;4.40;97.40
20526;DHT22;10421;49.142;9.232;2023-02-13T07:22:15;4.60;97.60
20526;DHT22;10421;49.142;9.232;2023-02-13T07:24:41;4.90;97.90
20526;DHT22;10421;49.142;9.232;2023-02-13T07:27:08;5.30;98.00
20526;DHT22;10421;49.142;9.232;2023-02-13T07:29:35;5.60;97.60
20526;DHT22;10421;49.142;9.232;2023-02-13T07:32:03;5.80;97.20
20526;DHT22;10421;49.142;9.232;2023-02-13T07:34:31;6.00;97.00
20526;DHT22;10421;49.142;9.232;2023-02-13T07:36:58;6.20;96.70
20526;DHT22;10421;49.142;9.232;2023-02-13T07:39:24;6.30;96.30
20526;DHT22;10421;49.142;9.232;2023-02-13T07:41:51;6.30;96.00
20526;DHT22;10421;49.142;9.232;2023-02-13T07:44:18;6.30;95.90
20526;DHT22;10421;49.142;9.232;2023-02-13T07:46:45;6.40;95.80
20526;DHT22;10421;49.142;9.232;2023-02-13T07:49:13;6.70;95.90
20526;DHT22;10421;49.142;9.232;2023-02-13T07:51:39;7.10;95.50
20526;DHT22;10421;49.142;9.232;2023-02-13T07:54:06;7.40;95.40
20526;DHT22;10421;49.142;9.232;2023-02-13T07:56:33;7.70;95.00
20526;DHT22;10421;49.142;9.232;2023-02-13T07:58:59;7.90;94.10
20526;DHT22;10421;49.142;9.232;2023-02-13T08:01:26;8.00;94.10
20526;DHT22;10421;49.142;9.232;2023-02-13T08:03:53;8.10;93.90
20526;DHT22;10421;49.142;9.232;2023-02-13T08:06:21;8.20;93.50
20526;DHT22;10421;49.142;9.232;2023-02-13T08:08:48;8.20;93.10
20526;DHT22;10421;49.142;9.232;2023-02-13T08:11:35;8.20;93.10
20526;DHT22;10421;49.142;9.232;2023-02-13T08:14:19;8.40;92.90
20526;DHT22;10421;49.142;9.232;2023-02-13T08:16:46;8.60;92.40
20526;DHT22;10421;49.142;9.232;2023-02-13T08:19:13;9.00;91.90
20526;DHT22;10421;49.142;9.232;2023-02-13T08:21:41;9.30;91.00
20526;DHT22;10421;49.142;9.232;2023-02-13T08:24:08;9.50;90.20
20526;DHT22;10421;49.142;9.232;2023-02-13T08:26:35;9.80;89.90
20526;DHT22;10421;49.142;9.232;2023-02-13T08:29:02;10.10;87.60
20526;DHT22;10421;49.142;9.232;2023-02-13T08:31:29;10.40;86.40
20526;DHT22;10421;49.142;9.232;2023-02-13T08:33:56;10.70;85.30
20526;DHT22;10421;49.142;9.232;2023-02-13T08:36:23;10.80;84.30
20526;DHT22;10421;49.142;9.232;2023-02-13T08:38:51;10.90;84.00
20526;DHT22;10421;49.142;9.232;2023-02-13T08:41:18;11.10;83.40
20526;DHT22;10421;49.142;9.232;2023-02-13T08:43:47;11.20;83.10
20526;DHT22;10421;49.142;9.232;2023-02-13T08:46:14;11.40;82.20
20526;DHT22;10421;49.142;9.232;2023-02-13T08:48:40;11.50;81.60
20526;DHT22;10421;49.142;9.232;2023-02-13T08:51:08;11.60;81.00
20526;DHT22;10421;49.142;9.232;2023-02-13T08:53:36;11.70;80.90
20526;DHT22;10421;49.142;9.232;2023-02-13T08:56:05;11.70;80.50
20526;DHT22;10421;49.142;9.232;2023-02-13T08:58:32;11.70;80.40
20526;DHT22;10421;49.142;9.232;2023-02-13T09:00:59;11.70;80.60
20526;DHT22;10421;49.142;9.232;2023-02-13T09:03:25;11.70;80.40
20526;DHT22;10421;49.142;9.232;2023-02-13T09:05:57;11.70;80.40
20526;DHT22;10421;49.142;9.232;2023-02-13T09:08:24;11.60;80.70
20526;DHT22;10421;49.142;9.232;2023-02-13T09:10:55;11.60;80.80
20526;DHT22;10421;49.142;9.232;2023-02-13T09:13:24;11.60;80.60
20526;DHT22;10421;49.142;9.232;2023-02-13T09:15:50;11.70;80.50
20526;DHT22;10421;49.142;9.232;2023-02-13T09:18:17;11.70;80.70
20526;DHT22;10421;49.142;9.232;2023-02-13T09:20:44;12.00;81.00
20526;DHT22;10421;49.142;9.232;2023-02-13T09:23:11;12.10;79.60
20526;DHT22;10421;49.142;9.232;2023-02-13T09:25:37;12.40;79.20
20526;DHT22;10421;49.142;9.232;2023-02-13T09:28:04;12.60;78.70
20526;DHT22;10421;49.142;9.232;2023-02-13T09:30:32;12.80;77.90
20526;DHT22;10421;49.142;9.232;2023-02-13T09:32:59;13.00;77.40
20526;DHT22;10421;49.142;9.232;2023-02-13T09:35:25;13.20;76.80
20526;DHT22;10421;49.142;9.232;2023-02-13T09:37:53;13.40;76.50
20526;DHT22;10421;49.142;9.232;2023-02-13T09:40:24;13.50;75.70
20526;DHT22;10421;49.142;9.232;2023-02-13T09:42:52;13.60;75.40
20526;DHT22;10421;49.142;9.232;2023-02-13T09:45:21;13.70;75.10
20526;DHT22;10421;49.142;9.232;2023-02-13T09:47:49;13.80;75.00
20526;DHT22;10421;49.142;9.232;2023-02-13T09:50:20;14.00;74.90
20526;DHT22;10421;49.142;9.232;2023-02-13T09:52:49;14.20;74.40
20526;DHT22;10421;49.142;9.232;2023-02-13T09:55:18;14.30;74.00
20526;DHT22;10421;49.142;9.232;2023-02-13T09:57:53;14.50;73.80
20526;DHT22;10421;49.142;9.232;2023-02-13T10:00:26;14.60;73.40
20526;DHT22;10421;49.142;9.232;2023-02-13T10:03:16;14.80;73.20
20526;DHT22;10421;49.142;9.232;2023-02-13T10:05:50;15.10;72.50
20526;DHT22;10421;49.142;9.232;2023-02-13T10:08:30;15.20;72.00
20526;DHT22;10421;49.142;9.232;2023-02-13T10:11:05;15.40;71.50
20526;DHT22;10421;49.142;9.232;2023-02-13T10:13:47;15.60;70.90
20526;DHT22;10421;49.142;9.232;2023-02-13T10:16:17;15.80;70.00
20526;DHT22;10421;49.142;9.232;2023-02-13T10:18:50;16.00;69.90
20526;DHT22;10421;49.142;9.232;2023-02-13T10:21:21;16.20;69.10
20526;DHT22;10421;49.142;9.232;2023-02-13T10:23:55;16.30;68.80
20526;DHT22;10421;49.142;9.232;2023-02-13T10:26:25;16.50;68.30
20526;DHT22;10421;49.142;9.232;2023-02-13T10:29:10;16.60;67.80
20526;DHT22;10421;49.142;9.232;2023-02-13T10:32:00;16.60;67.70
20526;DHT22;10421;49.142;9.232;2023-02-13T10:34:34;16.70;67.20
20526;DHT22;10421;49.142;9.232;2023-02-13T10:37:03;16.80;67.10
20526;DHT22;10421;49.142;9.232;2023-02-13T10:39:34;16.90;67.20
20526;DHT22;10421;49.142;9.232;2023-02-13T10:42:06;17.10;66.90
20526;DHT22;10421;49.142;9.232;2023-02-13T10:44:48;17.10;66.60
20526;DHT22;10421;49.142;9.232;2023-02-13T10:47:25;17.20;66.60
20526;DHT22;10421;49.142;9.232;2023-02-13T10:50:05;17.30;66.50
20526;DHT22;10421;49.142;9.232;2023-02-13T10:52:43;17.50;66.40
20526;DHT22;10421;49.142;9.232;2023-02-13T10:55:21;17.60;65.50
20526;DHT22;10421;49.142;9.232;2023-02-13T10:58:04;17.80;65.10
20526;DHT22;10421;49.142;9.232;2023-02-13T11:00:34;18.00;64.50
20526;DHT22;10421;49.142;9.232;2023-02-13T11:03:03;18.10;64.00
20526;DHT22;10421;49.142;9.232;2023-02-13T11:05:35;18.30;64.10
20526;DHT22;10421;49.142;9.232;2023-02-13T11:08:04;18.40;63.60
20526;DHT22;10421;49.142;9.232;2023-02-13T11:10:39;18.50;62.90
20526;DHT22;10421;49.142;9.232;2023-02-13T11:13:15;18.60;62.90
20526;DHT22;10421;49.142;9.232;2023-02-13T11:15:55;18.60;62.60
20526;DHT22;10421;49.142;9.232;2023-02-13T11:18:25;18.80;61.90
20526;DHT22;10421;49.142;9.232;2023-02-13T11:21:00;18.90;61.80
20526;DHT22;10421;49.142;9.232;2023-02-13T11:23:35;19.10;61.50
20526;DHT22;10421;49.142;9.232;2023-02-13T11:26:05;19.20;60.70
20526;DHT22;10421;49.142;9.232;2023-02-13T11:28:36;19.30;60.30
20526;DHT22;10421;49.142;9.232;2023-02-13T11:31:18;19.40;60.20
20526;DHT22;10421;49.142;9.232;2023-02-13T11:33:47;19.50;59.60
20526;DHT22;10421;49.142;9.232;2023-02-13T11:36:16;19.50;59.40
20526;DHT22;10421;49.142;9.232;2023-02-13T11:38:56;19.60;59.20
20526;DHT22;10421;49.142;9.232;2023-02-13T11:41:24;19.70;58.90
20526;DHT22;10421;49.142;9.232;2023-02-13T11:43:54;19.70;59.00
20526;DHT22;10421;49.142;9.232;2023-02-13T11:46:27;19.80;58.90
20526;DHT22;10421;49.142;9.232;2023-02-13T11:48:59;19.80;58.80
20526;DHT22;10421;49.142;9.232;2023-02-13T11:51:38;20.00;58.40
20526;DHT22;10421;49.142;9.232;2023-02-13T11:54:22;20.20;57.70
20526;DHT22;10421;49.142;9.232;2023-02-13T11:56:51;20.30;57.10
20526;DHT22;10421;49.142;9.232;2023-02-13T11:59:22;20.40;57.30
20526;DHT22;10421;49.142;9.232;2023-02-13T12:02:01;20.50;57.00
20526;DHT22;10421;49.142;9.232;2023-02-13T12:04:29;20.60;56.70
20526;DHT22;10421;49.142;9.232;2023-02-13T12:07:02;20.70;56.50
20526;DHT22;10421;49.142;9.232;2023-02-13T12:09:31;20.80;56.10
20526;DHT22;10421;49.142;9.232;2023-02-13T12:11:59;20.90;55.70
20526;DHT22;10421;49.142;9.232;2023-02-13T12:14:30;21.10;55.50
20526;DHT22;10421;49.142;9.232;2023-02-13T12:17:01;21.20;55.10
20526;DHT22;10421;49.142;9.232;2023-02-13T12:19:34;21.20;54.50
20526;DHT22;10421;49.142;9.232;2023-02-13T12:22:26;21.20;54.90
20526;DHT22;10421;49.142;9.232;2023-02-13T12:28:02;21.30;54.60
20526;DHT22;10421;49.142;9.232;2023-02-13T12:33:54;21.50;54.30
20526;DHT22;10421;49.142;9.232;2023-02-13T12:36:31;21.50;54.30
20526;DHT22;10421;49.142;9.232;2023-02-13T12:39:13;21.40;54.20
20526;DHT22;10421;49.142;9.232;2023-02-13T12:41:50;21.30;54.70
20526;DHT22;10421;49.142;9.232;2023-02-13T12:44:50;21.20;55.00
20526;DHT22;10421;49.142;9.232;2023-02-13T12:47:22;21.10;54.50
20526;DHT22;10421;49.142;9.232;2023-02-13T12:50:14;21.10;54.70
20526;DHT22;10421;49.142;9.232;2023-02-13T12:52:56;21.00;54.60
20526;DHT22;10421;49.142;9.232;2023-02-13T12:55:43;21.00;54.60
20526;DHT22;10421;49.142;9.232;2023-02-13T12:58:32;21.00;54.80
20526;DHT22;10421;49.142;9.232;2023-02-13T13:01:13;21.00;55.00
20526;DHT22;10421;49.142;9.232;2023-02-13T13:03:48;21.00;54.90
20526;DHT22;10421;49.142;9.232;2023-02-13T13:09:28;20.90;54.70
20526;DHT22;10421;49.142;9.232;2023-02-13T13:12:12;20.90;55.00
20526;DHT22;10421;49.142;9.232;2023-02-13T13:14:48;20.90;54.90
20526;DHT22;10421;49.142;9.232;2023-02-13T13:17:26;20.90;55.00
20526;DHT22;10421;49.142;9.232;2023-02-13T13:20:03;20.90;54.90
20526;DHT22;10421;49.142;9.232;2023-02-13T13:22:37;20.90;54.90
20526;DHT22;10421;49.142;9.232;2023-02-13T13:25:17;21.00;55.00
20526;DHT22;10421;49.142;9.232;2023-02-13T13:27:50;21.10;54.90
20526;DHT22;10421;49.142;9.232;2023-02-13T13:30:21;21.20;54.50
20526;DHT22;10421;49.142;9.232;2023-02-13T13:32:55;21.20;54.40
20526;DHT22;10421;49.142;9.232;2023-02-13T13:35:22;21.20;54.40
20526;DHT22;10421;49.142;9.232;2023-02-13T13:37:55;21.20;54.30
20526;DHT22;10421;49.142;9.232;2023-02-13T13:40:35;21.10;54.10
20526;DHT22;10421;49.142;9.232;2023-02-13T13:43:15;21.10;54.10
20526;DHT22;10421;49.142;9.232;2023-02-13T13:45:47;21.20;54.40
20526;DHT22;10421;49.142;9.232;2023-02-13T13:51:15;21.10;54.20
20526;DHT22;10421;49.142;9.232;2023-02-13T13:57:07;21.10;54.30
20526;DHT22;10421;49.142;9.232;2023-02-13T14:02:44;20.90;54.40
20526;DHT22;10421;49.142;9.232;2023-02-13T14:05:24;21.00;54.40
20526;DHT22;10421;49.142;9.232;2023-02-13T14:07:53;21.10;54.40
20526;DHT22;10421;49.142;9.232;2023-02-13T14:13:33;21.10;54.50
20526;DHT22;10421;49.142;9.232;2023-02-13T14:16:02;21.20;54.50
20526;DHT22;10421;49.142;9.232;2023-02-13T14:18:30;21.20;54.40
20526;DHT22;10421;49.142;9.232;2023-02-13T14:20:59;21.20;54.40
20526;DHT22;10421;49.142;9.232;2023-02-13T14:23:31;21.30;54.40
20526;DHT22;10421;49.142;9.232;2023-02-13T14:26:26;21.20;54.50
20526;DHT22;10421;49.142;9.232;2023-02-13T14:28:57;21.20;54.90
20526;DHT22;10421;49.142;9.232;2023-02-13T14:31:28;21.20;54.50
20526;DHT22;10421;49.142;9.232;2023-02-13T14:33:59;21.10;54.70
20526;DHT22;10421;49.142;9.232;2023-02-13T14:36:28;21.20;54.80
20526;DHT22;10421;49.142;9.232;2023-02-13T14:38:59;21.10;54.50
20526;DHT22;10421;49.142;9.232;2023-02-13T14:41:44;21.10;54.50
20526;DHT22;10421;49.142;9.232;2023-02-13T14:44:16;21.10;54.50
20526;DHT22;10421;49.142;9.232;2023-02-13T14:46:46;21.00;54.40
20526;DHT22;10421;49.142;9.232;2023-02-13T14:49:19;20.90;54.70
20526;DHT22;10421;49.142;9.232;2023-02-13T14:51:49;20.90;55.40
20526;DHT22;10421;49.142;9.232;2023-02-13T14:54:23;20.90;55.00
20526;DHT22;10421;49.142;9.232;2023-02-13T14:56:53;21.00;55.00
20526;DHT22;10421;49.142;9.232;2023-02-13T14:59:28;21.00;54.90
20526;DHT22;10421;49.142;9.232;2023-02-13T15:02:01;21.10;54.80
20526;DHT22;10421;49.142;9.232;2023-02-13T15:04:37;21.10;55.20
20526;DHT22;10421;49.142;9.232;2023-02-13T15:07:13;21.20;55.30
20526;DHT22;10421;49.142;9.232;2023-02-13T15:09:45;21.20;54.80
20526;DHT22;10421;49.142;9.232;2023-02-13T15:12:24;21.10;54.60
20526;DHT22;10421;49.142;9.232;2023-02-13T15:14:52;21.00;54.60
20526;DHT22;10421;49.142;9.232;2023-02-13T15:17:21;20.90;55.00
20526;DHT22;10421;49.142;9.232;2023-02-13T15:19:52;20.80;54.60
20526;DHT22;10421;49.142;9.232;2023-02-13T15:22:23;20.70;55.00
20526;DHT22;10421;49.142;9.232;2023-02-13T15:24:52;20.70;54.80
20526;DHT22;10421;49.142;9.232;2023-02-13T15:27:23;20.60;54.60
20526;DHT22;10421;49.142;9.232;2023-02-13T15:29:59;20.50;54.80
20526;DHT22;10421;49.142;9.232;2023-02-13T15:32:29;20.50;54.90
20526;DHT22;10421;49.142;9.232;2023-02-13T15:34:58;20.40;54.90
20526;DHT22;10421;49.142;9.232;2023-02-13T15:37:28;20.40;54.70
20526;DHT22;10421;49.142;9.232;2023-02-13T15:39:54;20.40;54.60
20526;DHT22;10421;49.142;9.232;2023-02-13T15:42:21;20.30;54.50
20526;DHT22;10421;49.142;9.232;2023-02-13T15:44:50;20.10;54.30
20526;DHT22;10421;49.142;9.232;2023-02-13T15:47:24;19.90;54.40
20526;DHT22;10421;49.142;9.232;2023-02-13T15:49:52;19.70;54.70
20526;DHT22;10421;49.142;9.232;2023-02-13T15:52:24;19.50;55.00
20526;DHT22;10421;49.142;9.232;2023-02-13T15:54:54;19.30;55.10
20526;DHT22;10421;49.142;9.232;2023-02-13T15:57:22;19.10;55.20
20526;DHT22;10421;49.142;9.232;2023-02-13T15:59:50;18.90;55.50
20526;DHT22;10421;49.142;9.232;2023-02-13T16:02:19;18.70;55.80
20526;DHT22;10421;49.142;9.232;2023-02-13T16:04:49;18.60;56.00
20526;DHT22;10421;49.142;9.232;2023-02-13T16:07:16;18.50;56.20
20526;DHT22;10421;49.142;9.232;2023-02-13T16:09:45;18.30;56.50
20526;DHT22;10421;49.142;9.232;2023-02-13T16:12:19;18.20;56.70
20526;DHT22;10421;49.142;9.232;2023-02-13T16:14:50;18.10;57.10
20526;DHT22;10421;49.142;9.232;2023-02-13T16:17:25;17.90;57.30
20526;DHT22;10421;49.142;9.232;2023-02-13T16:19:57;17.80;57.50
20526;DHT22;10421;49.142;9.232;2023-02-13T16:22:29;17.60;57.70
20526;DHT22;10421;49.142;9.232;2023-02-13T16:25:16;17.60;58.00
20526;DHT22;10421;49.142;9.232;2023-02-13T16:27:45;17.50;58.20
20526;DHT22;10421;49.142;9.232;2023-02-13T16:30:23;17.40;58.30
20526;DHT22;10421;49.142;9.232;2023-02-13T16:32:50;17.20;58.50
20526;DHT22;10421;49.142;9.232;2023-02-13T16:35:26;17.10;58.60